Aviation Digital Data Service (ADDS)

Output produced by METARs form (0704 UTC 21 April 2014)
found at http://aviationweather.gov/adds/metars/
 
KACK 210542Z 2106/2206 08007KT P6SM FEW250 
     FM212300 13004KT P6SM FEW140